createdAt,value
2018-12-06T00:00:56.420Z,4.20
2018-12-06T00:03:29.402Z,4.18
2018-12-06T00:06:00.915Z,4.11
2018-12-06T00:08:34.149Z,4.09
2018-12-06T00:11:07.050Z,4.14
2018-12-06T00:13:38.469Z,4.21
2018-12-06T00:16:11.852Z,4.21
2018-12-06T00:18:43.483Z,4.21
2018-12-06T00:21:16.719Z,4.25
2018-12-06T00:23:50.212Z,4.28
2018-12-06T00:26:21.539Z,4.40
2018-12-06T00:28:56.525Z,4.42
2018-12-06T00:31:31.739Z,4.40
2018-12-06T00:34:03.023Z,4.34
2018-12-06T00:36:33.943Z,4.37
2018-12-06T00:39:06.484Z,4.37
2018-12-06T00:41:37.563Z,4.41
2018-12-06T00:44:08.636Z,4.39
2018-12-06T00:46:42.186Z,4.48
2018-12-06T00:49:16.052Z,4.50
2018-12-06T00:51:47.402Z,4.45
2018-12-06T00:54:18.548Z,4.53
2018-12-06T00:56:51.966Z,4.50
2018-12-06T00:59:27.404Z,4.49
2018-12-06T01:02:00.921Z,4.43
2018-12-06T01:04:31.906Z,4.44
2018-12-06T01:07:05.296Z,4.41
2018-12-06T01:09:38.162Z,4.39
2018-12-06T01:12:11.645Z,4.38
2018-12-06T01:14:45.818Z,4.35
2018-12-06T01:17:20.853Z,4.35
2018-12-06T01:19:55.368Z,4.43
2018-12-06T01:22:30.107Z,4.52
2018-12-06T01:25:04.923Z,4.62
2018-12-06T01:27:37.860Z,4.71
2018-12-06T01:30:10.814Z,4.77
2018-12-06T01:32:42.266Z,4.85
2018-12-06T01:35:15.364Z,4.88
2018-12-06T01:37:48.337Z,4.88
2018-12-06T01:40:19.750Z,4.95
2018-12-06T01:42:53.162Z,4.92
2018-12-06T01:45:28.700Z,4.95
2018-12-06T01:48:01.684Z,5.01
2018-12-06T01:50:37.316Z,4.94
2018-12-06T01:53:08.637Z,5.00
2018-12-06T01:55:42.086Z,4.96
2018-12-06T01:58:13.374Z,5.07
2018-12-06T02:00:46.784Z,5.21
2018-12-06T02:03:18.068Z,5.30
2018-12-06T02:05:53.139Z,5.35
2018-12-06T02:08:30.038Z,5.42
2018-12-06T02:11:07.795Z,5.42
2018-12-06T02:13:42.579Z,5.44
2018-12-06T02:16:17.461Z,5.45
2018-12-06T02:18:50.485Z,5.44
2018-12-06T02:21:21.725Z,5.43
2018-12-06T02:23:57.370Z,5.49
2018-12-06T02:26:30.530Z,5.47
2018-12-06T02:29:02.768Z,5.54
2018-12-06T02:31:36.233Z,5.51
2018-12-06T02:34:09.866Z,5.52
2018-12-06T02:36:41.313Z,5.51
2018-12-06T02:39:14.693Z,5.53
2018-12-06T02:41:46.052Z,5.52
2018-12-06T02:44:17.437Z,5.52
2018-12-06T02:46:50.788Z,5.48
2018-12-06T02:49:22.118Z,5.50
2018-12-06T02:51:53.284Z,5.50
2018-12-06T02:54:26.567Z,5.57
2018-12-06T02:56:57.837Z,5.60
2018-12-06T02:59:28.947Z,5.60
2018-12-06T03:02:02.220Z,5.61
2018-12-06T03:04:33.544Z,5.61
2018-12-06T03:07:06.837Z,5.65
2018-12-06T03:09:39.789Z,5.67
2018-12-06T03:12:14.504Z,5.66
2018-12-06T03:14:47.591Z,5.62
2018-12-06T03:17:20.591Z,5.59
2018-12-06T03:19:51.950Z,5.60
2018-12-06T03:22:23.137Z,5.64
2018-12-06T03:25:00.072Z,5.56
2018-12-06T03:27:31.287Z,5.58
2018-12-06T03:30:04.905Z,5.61
2018-12-06T03:32:36.241Z,5.65
2018-12-06T03:35:09.574Z,5.69
2018-12-06T03:37:43.292Z,5.65
2018-12-06T03:40:14.685Z,5.67
2018-12-06T03:42:47.982Z,5.67
2018-12-06T03:45:24.952Z,5.68
2018-12-06T03:47:56.329Z,5.65
2018-12-06T03:50:29.496Z,5.66
2018-12-06T03:53:02.818Z,5.66
2018-12-06T03:55:38.420Z,5.68
2018-12-06T03:58:11.941Z,5.64
2018-12-06T04:00:43.526Z,5.61
2018-12-06T04:03:16.441Z,5.68
2018-12-06T04:05:47.815Z,5.70
2018-12-06T04:08:21.183Z,5.78
2018-12-06T04:10:58.029Z,5.74
2018-12-06T04:13:31.467Z,5.75
2018-12-06T04:16:06.601Z,5.74
2018-12-06T04:18:38.984Z,5.76
2018-12-06T04:21:10.913Z,5.72
2018-12-06T04:23:46.975Z,5.69
2018-12-06T04:26:20.242Z,5.65
2018-12-06T04:28:51.668Z,5.66
2018-12-06T04:31:25.083Z,5.67
2018-12-06T04:33:56.622Z,5.66
2018-12-06T04:36:31.763Z,5.62
2018-12-06T04:39:05.655Z,5.61
2018-12-06T04:41:37.165Z,5.67
2018-12-06T04:44:12.259Z,5.63
2018-12-06T04:46:45.219Z,5.67
2018-12-06T04:49:16.656Z,5.62
2018-12-06T04:51:49.940Z,5.60
2018-12-06T04:54:21.562Z,5.58
2018-12-06T04:56:54.692Z,5.58
2018-12-06T04:59:27.817Z,5.62
2018-12-06T05:02:01.616Z,5.55
2018-12-06T05:04:35.460Z,5.53
2018-12-06T05:07:09.228Z,5.52
2018-12-06T05:09:42.862Z,5.54
2018-12-06T05:12:15.919Z,5.58
2018-12-06T05:14:47.320Z,5.62
2018-12-06T05:17:20.975Z,5.63
2018-12-06T05:19:52.295Z,5.65
2018-12-06T05:22:29.774Z,5.63
2018-12-06T05:25:03.172Z,5.61
2018-12-06T05:27:34.465Z,5.57
2018-12-06T05:30:08.494Z,5.58
2018-12-06T05:32:40.099Z,5.59
2018-12-06T05:35:13.627Z,5.62
2018-12-06T05:37:44.824Z,5.69
2018-12-06T05:40:18.176Z,5.71
2018-12-06T05:42:51.713Z,5.63
2018-12-06T05:45:24.721Z,5.61
2018-12-06T05:48:01.680Z,5.55
2018-12-06T05:50:41.094Z,5.59
2018-12-06T05:53:14.698Z,5.54
2018-12-06T05:55:48.472Z,5.50
2018-12-06T05:58:21.552Z,5.50
2018-12-06T06:00:52.769Z,5.53
2018-12-06T06:03:26.178Z,5.53
2018-12-06T06:06:02.355Z,5.59
2018-12-06T06:08:32.956Z,5.60
2018-12-06T06:11:06.053Z,5.66
2018-12-06T06:13:39.145Z,5.67
2018-12-06T06:16:09.788Z,5.65
2018-12-06T06:18:42.920Z,5.60
2018-12-06T06:24:32.965Z,5.61
2018-12-06T06:27:08.172Z,5.62
2018-12-06T06:29:41.386Z,5.66
2018-12-06T06:32:22.591Z,5.65
2018-12-06T06:34:56.266Z,5.65
2018-12-06T06:37:29.908Z,5.60
2018-12-06T06:40:07.715Z,5.62
2018-12-06T06:42:40.747Z,5.66
2018-12-06T06:45:16.499Z,5.70
2018-12-06T06:47:50.281Z,5.69
2018-12-06T06:50:25.204Z,5.73
2018-12-06T06:52:56.704Z,5.78
2018-12-06T06:55:30.406Z,5.81
2018-12-06T06:58:01.925Z,5.81
2018-12-06T07:00:37.263Z,5.73
2018-12-06T07:03:10.941Z,5.66
2018-12-06T07:05:47.954Z,5.58
2018-12-06T07:08:19.995Z,5.60
2018-12-06T07:10:53.873Z,5.57
2018-12-06T07:13:26.999Z,5.59
2018-12-06T07:16:07.004Z,5.52
2018-12-06T07:18:41.173Z,5.53
2018-12-06T07:21:14.990Z,5.51
2018-12-06T07:23:48.655Z,5.50
2018-12-06T07:26:20.626Z,5.50
2018-12-06T07:28:52.096Z,5.53
2018-12-06T07:31:27.870Z,5.57
2018-12-06T07:34:01.185Z,5.53
2018-12-06T07:36:36.009Z,5.55
2018-12-06T07:39:10.849Z,5.53
2018-12-06T07:41:43.938Z,5.57
2018-12-06T07:44:17.514Z,5.61
2018-12-06T07:46:49.018Z,5.69
2018-12-06T07:49:22.416Z,5.63
2018-12-06T07:51:53.757Z,5.64
2018-12-06T07:54:27.231Z,5.70
2018-12-06T07:57:00.949Z,5.72
2018-12-06T07:59:36.941Z,5.79
2018-12-06T08:02:10.541Z,5.89
2018-12-06T08:04:44.470Z,6.03
2018-12-06T08:07:16.087Z,6.12
2018-12-06T08:09:53.710Z,6.16
2018-12-06T08:12:29.106Z,6.25
2018-12-06T08:15:03.081Z,6.35
2018-12-06T08:17:37.356Z,6.50
2018-12-06T08:20:10.878Z,6.62
2018-12-06T08:22:42.678Z,6.74
2018-12-06T08:25:16.542Z,6.90
2018-12-06T08:27:48.049Z,7.08
2018-12-06T08:30:23.524Z,7.22
2018-12-06T08:32:59.374Z,7.39
2018-12-06T08:35:32.424Z,7.54
2018-12-06T08:38:05.493Z,7.66
2018-12-06T08:40:39.116Z,7.65
2018-12-06T08:43:14.837Z,7.64
2018-12-06T08:45:55.125Z,7.63
2018-12-06T08:48:34.641Z,7.60
2018-12-06T08:51:14.374Z,7.61
2018-12-06T08:53:51.863Z,7.65
2018-12-06T08:56:24.885Z,7.66
2018-12-06T08:58:57.831Z,7.69
2018-12-06T09:01:29.967Z,7.65
2018-12-06T09:04:01.463Z,7.70
2018-12-06T09:06:35.601Z,7.69
2018-12-06T09:09:09.128Z,7.70
2018-12-06T09:11:43.075Z,7.63
2018-12-06T09:14:14.159Z,7.57
2018-12-06T09:16:47.504Z,7.56
2018-12-06T09:19:21.388Z,7.56
2018-12-06T09:21:57.612Z,7.61
2018-12-06T09:24:31.115Z,7.64
2018-12-06T09:27:04.865Z,7.69
2018-12-06T09:29:39.005Z,7.77
2018-12-06T09:32:10.433Z,7.84
2018-12-06T09:34:42.286Z,8.19
2018-12-06T09:37:13.081Z,8.42
2018-12-06T09:39:57.620Z,8.55
2018-12-06T09:42:34.560Z,8.46
2018-12-06T09:45:07.127Z,8.39
2018-12-06T09:47:40.712Z,8.27
2018-12-06T09:50:12.008Z,8.22
2018-12-06T09:52:45.552Z,8.21
2018-12-06T09:55:19.596Z,8.18
2018-12-06T09:57:55.964Z,8.12
2018-12-06T10:00:36.575Z,8.13
2018-12-06T10:03:10.533Z,8.06
2018-12-06T10:05:45.524Z,7.99
2018-12-06T10:08:17.427Z,7.97
2018-12-06T10:10:49.182Z,7.94
2018-12-06T10:13:20.065Z,7.88
2018-12-06T10:15:53.738Z,7.90
2018-12-06T10:18:27.632Z,7.79
2018-12-06T10:21:01.382Z,7.73
2018-12-06T10:23:36.047Z,7.66
2018-12-06T10:26:07.648Z,7.59
2018-12-06T10:28:41.652Z,7.47
2018-12-06T10:31:21.930Z,7.38
2018-12-06T10:33:55.828Z,7.29
2018-12-06T10:36:27.413Z,7.26
2018-12-06T10:38:59.519Z,7.27
2018-12-06T10:41:31.802Z,7.21
2018-12-06T10:44:06.350Z,7.20
2018-12-06T10:46:39.968Z,7.20
2018-12-06T10:49:13.795Z,7.17
2018-12-06T10:51:50.117Z,7.17
2018-12-06T10:54:21.939Z,7.20
2018-12-06T10:56:58.135Z,7.20
2018-12-06T10:59:31.671Z,7.24
2018-12-06T11:02:03.841Z,7.30
2018-12-06T11:04:36.973Z,7.33
2018-12-06T11:07:10.966Z,7.35
2018-12-06T11:09:45.909Z,7.41
2018-12-06T11:12:19.556Z,7.46
2018-12-06T11:14:50.943Z,7.47
2018-12-06T11:17:24.141Z,7.49
2018-12-06T11:19:55.611Z,7.50
2018-12-06T11:22:27.022Z,7.51
2018-12-06T11:25:00.023Z,7.58
2018-12-06T11:27:34.069Z,7.64
2018-12-06T11:32:36.893Z,7.87
2018-12-06T11:35:10.344Z,7.99
2018-12-06T11:37:45.311Z,8.10
2018-12-06T11:40:21.390Z,8.24
2018-12-06T11:42:56.349Z,8.32
2018-12-06T11:45:30.315Z,8.39
2018-12-06T11:48:08.511Z,8.48
2018-12-06T11:50:44.274Z,8.46
2018-12-06T11:53:15.650Z,8.44
2018-12-06T11:55:49.724Z,8.48
2018-12-06T11:58:23.023Z,8.49
2018-12-06T12:00:58.539Z,8.49
2018-12-06T12:03:31.979Z,8.49
2018-12-06T12:06:03.175Z,8.50
2018-12-06T12:08:38.379Z,8.55
2018-12-06T12:11:10.344Z,8.60
2018-12-06T12:13:42.125Z,8.65
2018-12-06T12:16:16.954Z,8.72
2018-12-06T12:18:50.141Z,8.78
2018-12-06T12:21:25.360Z,8.85
2018-12-06T12:23:59.179Z,8.99
2018-12-06T12:26:33.582Z,9.07
2018-12-06T12:29:07.076Z,9.13
2018-12-06T12:31:41.876Z,9.22
2018-12-06T12:34:16.596Z,9.32
2018-12-06T12:36:48.497Z,9.37
2018-12-06T12:39:21.584Z,9.38
2018-12-06T12:41:55.108Z,9.40
2018-12-06T12:44:26.770Z,9.33
2018-12-06T12:47:00.114Z,9.28
2018-12-06T12:49:31.601Z,9.18
2018-12-06T12:52:04.909Z,9.14
2018-12-06T12:54:38.040Z,9.15
2018-12-06T12:57:09.180Z,9.12
2018-12-06T12:59:42.426Z,9.14
2018-12-06T13:02:16.090Z,9.11
2018-12-06T13:04:52.990Z,9.08
2018-12-06T13:07:24.698Z,9.06
2018-12-06T13:09:58.983Z,9.01
2018-12-06T13:12:34.296Z,8.98
2018-12-06T13:15:09.313Z,8.94
2018-12-06T13:17:44.758Z,8.90
2018-12-06T13:20:15.860Z,8.87
2018-12-06T13:22:48.998Z,8.76
2018-12-06T13:28:15.904Z,8.71
2018-12-06T13:30:49.477Z,8.67
2018-12-06T13:33:33.127Z,8.66
2018-12-06T13:36:17.157Z,8.62
2018-12-06T13:38:52.188Z,8.61
2018-12-06T13:41:27.097Z,8.61
2018-12-06T13:44:00.197Z,8.54
2018-12-06T13:46:37.273Z,8.49
2018-12-06T13:49:09.744Z,8.49
2018-12-06T13:51:41.232Z,8.44
2018-12-06T13:54:14.357Z,8.48
2018-12-06T13:56:50.602Z,8.43
2018-12-06T13:59:31.825Z,8.40
2018-12-06T14:02:08.130Z,8.40
2018-12-06T14:04:39.216Z,8.35
2018-12-06T14:07:10.496Z,8.35
2018-12-06T14:09:43.713Z,8.35
2018-12-06T14:12:15.155Z,8.41
2018-12-06T14:14:50.050Z,8.43
2018-12-06T14:17:27.494Z,8.44
2018-12-06T14:20:00.530Z,8.40
2018-12-06T14:22:32.075Z,8.37
2018-12-06T14:25:05.690Z,8.34
2018-12-06T14:27:42.777Z,8.33
2018-12-06T14:30:18.645Z,8.32
2018-12-06T14:32:50.172Z,8.30
2018-12-06T14:35:23.396Z,8.29
2018-12-06T14:37:54.917Z,8.30
2018-12-06T14:40:28.206Z,8.24
2018-12-06T14:42:59.876Z,8.21
2018-12-06T14:45:33.503Z,8.18
2018-12-06T14:48:09.181Z,8.17
2018-12-06T14:50:42.694Z,8.15
2018-12-06T14:53:17.834Z,8.18
2018-12-06T14:55:51.919Z,8.21
2018-12-06T14:58:23.344Z,8.21
2018-12-06T15:00:54.334Z,8.24
2018-12-06T15:03:25.451Z,8.27
2018-12-06T15:05:58.498Z,8.31
2018-12-06T15:08:33.528Z,8.32
2018-12-06T15:11:06.502Z,8.34
2018-12-06T15:13:39.619Z,8.30
2018-12-06T15:16:11.400Z,8.28
2018-12-06T15:18:42.837Z,8.31
2018-12-06T15:21:16.898Z,8.31
2018-12-06T15:23:50.168Z,8.30
2018-12-06T15:26:22.558Z,8.30
2018-12-06T15:28:55.921Z,8.27
2018-12-06T15:31:27.227Z,8.26
2018-12-06T15:34:01.028Z,8.28
2018-12-06T15:36:32.315Z,8.24
2018-12-06T15:39:06.654Z,8.26
2018-12-06T15:41:39.522Z,8.25
2018-12-06T15:44:18.909Z,8.23
2018-12-06T15:47:01.292Z,8.21
2018-12-06T15:49:38.167Z,8.13
2018-12-06T15:52:11.842Z,8.19
2018-12-06T15:54:47.316Z,8.16
2018-12-06T15:57:20.501Z,8.13
2018-12-06T15:59:53.165Z,8.13
2018-12-06T16:02:26.483Z,8.14
2018-12-06T16:05:06.577Z,8.13
2018-12-06T16:07:41.301Z,8.15
2018-12-06T16:10:15.742Z,8.18
2018-12-06T16:12:49.194Z,8.15
2018-12-06T16:15:22.759Z,8.13
2018-12-06T16:17:56.909Z,8.15
2018-12-06T16:20:30.196Z,8.21
2018-12-06T16:23:08.396Z,8.18
2018-12-06T16:25:42.390Z,8.23
2018-12-06T16:28:13.584Z,8.25
2018-12-06T16:30:46.943Z,8.25
2018-12-06T16:33:19.997Z,8.24
2018-12-06T16:35:51.359Z,8.30
2018-12-06T16:38:26.802Z,8.30
2018-12-06T16:40:59.876Z,8.33
2018-12-06T16:43:37.717Z,8.33
2018-12-06T16:46:11.357Z,8.34
2018-12-06T16:48:47.976Z,8.37
2018-12-06T16:51:19.850Z,8.39
2018-12-06T16:53:53.097Z,8.41
2018-12-06T16:59:08.669Z,8.37
2018-12-06T17:01:43.744Z,8.37
2018-12-06T17:04:18.689Z,8.41
2018-12-06T17:06:54.065Z,8.37
2018-12-06T17:09:34.045Z,8.36
2018-12-06T17:12:08.557Z,8.32
2018-12-06T17:14:45.443Z,8.34
2018-12-06T17:17:20.604Z,8.41
2018-12-06T17:19:55.456Z,8.40
2018-12-06T17:22:30.319Z,8.43
2018-12-06T17:25:05.464Z,8.46
2018-12-06T17:27:44.893Z,8.46
2018-12-06T17:30:20.249Z,8.45
2018-12-06T17:32:55.417Z,8.49
2018-12-06T17:35:32.275Z,8.47
2018-12-06T17:38:07.397Z,8.50
2018-12-06T17:40:41.243Z,8.48
2018-12-06T17:43:15.733Z,8.46
2018-12-06T17:45:50.673Z,8.43
2018-12-06T17:48:27.728Z,8.43
2018-12-06T17:51:04.583Z,8.42
2018-12-06T17:53:38.561Z,8.45
2018-12-06T17:56:13.477Z,8.46
2018-12-06T17:58:52.977Z,8.46
2018-12-06T18:01:28.419Z,8.48
2018-12-06T18:04:03.256Z,8.49
2018-12-06T18:06:37.090Z,8.48
2018-12-06T18:09:12.555Z,8.42
2018-12-06T18:11:43.714Z,8.42
2018-12-06T18:14:19.181Z,8.45
2018-12-06T18:17:02.528Z,8.41
2018-12-06T18:19:40.734Z,8.44
2018-12-06T18:22:20.191Z,8.43
2018-12-06T18:24:55.687Z,8.41
2018-12-06T18:27:27.506Z,8.48
2018-12-06T18:30:02.428Z,8.58
2018-12-06T18:32:37.396Z,8.71
2018-12-06T18:35:15.915Z,8.80
2018-12-06T18:37:51.285Z,8.89
2018-12-06T18:40:22.866Z,8.90
2018-12-06T18:42:58.133Z,8.93
2018-12-06T18:45:32.994Z,8.98
2018-12-06T18:51:10.605Z,9.09
2018-12-06T18:53:46.123Z,9.08
2018-12-06T18:56:21.303Z,9.12
2018-12-06T18:58:52.520Z,9.11
2018-12-06T19:01:28.042Z,9.09
2018-12-06T19:04:03.563Z,9.15
2018-12-06T19:06:40.826Z,9.19
2018-12-06T19:09:16.780Z,9.25
2018-12-06T19:11:52.766Z,9.27
2018-12-06T19:14:30.798Z,9.26
2018-12-06T19:17:02.806Z,9.26
2018-12-06T19:19:40.177Z,9.22
2018-12-06T19:25:14.484Z,9.17
2018-12-06T19:28:00.651Z,9.26
2018-12-06T19:30:48.402Z,9.27
2018-12-06T19:33:24.589Z,9.41
2018-12-06T19:38:57.082Z,9.41
2018-12-06T19:41:36.741Z,9.38
2018-12-06T19:44:16.196Z,9.32
2018-12-06T19:46:57.641Z,9.30
2018-12-06T19:49:53.826Z,9.34
2018-12-06T19:52:43.441Z,9.36
2018-12-06T19:55:19.420Z,9.38
2018-12-06T19:57:53.141Z,9.39
2018-12-06T20:00:34.462Z,9.39
2018-12-06T20:03:09.971Z,9.44
2018-12-06T20:05:42.278Z,9.42
2018-12-06T20:08:13.126Z,9.43
2018-12-06T20:10:49.591Z,9.49
2018-12-06T20:13:24.783Z,9.52
2018-12-06T20:15:58.842Z,9.52
2018-12-06T20:18:33.577Z,9.47
2018-12-06T20:21:09.880Z,9.45
2018-12-06T20:23:42.139Z,9.40
2018-12-06T20:26:13.019Z,9.41
2018-12-06T20:28:46.176Z,9.38
2018-12-06T20:31:17.136Z,9.40
2018-12-06T20:33:55.636Z,9.44
2018-12-06T20:36:32.298Z,9.47
2018-12-06T20:39:12.297Z,9.45
2018-12-06T20:41:54.009Z,9.48
2018-12-06T20:44:34.093Z,9.49
2018-12-06T20:47:16.025Z,9.47
2018-12-06T20:49:56.068Z,9.47
2018-12-06T20:52:31.611Z,9.46
2018-12-06T20:55:11.990Z,9.45
2018-12-06T20:57:51.490Z,9.48
2018-12-06T21:00:31.414Z,9.45
2018-12-06T21:03:09.051Z,9.45
2018-12-06T21:05:49.249Z,9.42
2018-12-06T21:08:20.125Z,9.38
2018-12-06T21:10:55.406Z,9.46
2018-12-06T21:13:30.398Z,9.48
2018-12-06T21:16:05.377Z,9.59
2018-12-06T21:18:42.457Z,9.62
2018-12-06T21:21:20.154Z,9.63
2018-12-06T21:23:53.187Z,9.64
2018-12-06T21:26:28.046Z,9.65
2018-12-06T21:29:03.968Z,9.74
2018-12-06T21:31:37.658Z,9.76
2018-12-06T21:34:17.172Z,9.74
2018-12-06T21:36:54.536Z,9.79
2018-12-06T21:39:31.396Z,9.78
2018-12-06T21:42:08.267Z,9.78
2018-12-06T21:44:42.043Z,9.76
2018-12-06T21:47:24.608Z,9.77
2018-12-06T21:49:56.128Z,9.77
2018-12-06T21:52:28.263Z,9.74
2018-12-06T21:54:58.981Z,9.76
2018-12-06T21:57:32.346Z,9.76
2018-12-06T22:00:05.932Z,9.82
2018-12-06T22:02:39.208Z,9.82
2018-12-06T22:05:14.881Z,9.88
2018-12-06T22:07:47.874Z,9.95
2018-12-06T22:10:19.271Z,9.95
2018-12-06T22:12:56.758Z,9.98
2018-12-06T22:15:31.869Z,9.99
2018-12-06T22:18:04.823Z,10.00
2018-12-06T22:20:37.682Z,9.98
2018-12-06T22:23:12.775Z,10.00
2018-12-06T22:25:43.933Z,10.02
2018-12-06T22:28:17.269Z,10.04
2018-12-06T22:30:48.597Z,10.02
2018-12-06T22:33:21.781Z,10.01
2018-12-06T22:35:55.475Z,10.02
2018-12-06T22:38:33.874Z,10.02
2018-12-06T22:41:02.618Z,10.00
2018-12-06T22:43:37.965Z,9.96
2018-12-06T22:46:11.294Z,9.91
2018-12-06T22:48:44.329Z,9.90
2018-12-06T22:51:14.993Z,9.90
2018-12-06T22:53:48.280Z,9.90
2018-12-06T22:56:21.221Z,9.93
2018-12-06T22:58:54.017Z,9.92
2018-12-06T23:01:32.634Z,9.97
2018-12-06T23:04:08.251Z,10.00
2018-12-06T23:06:42.974Z,9.97
2018-12-06T23:09:17.776Z,9.94
2018-12-06T23:11:52.864Z,9.94
2018-12-06T23:14:27.416Z,9.96
2018-12-06T23:17:01.427Z,9.98
2018-12-06T23:22:37.004Z,10.05
2018-12-06T23:25:12.584Z,10.10
2018-12-06T23:27:47.864Z,10.12
2018-12-06T23:30:22.324Z,10.11
2018-12-06T23:33:01.613Z,10.17
2018-12-06T23:35:42.561Z,10.15
2018-12-06T23:38:17.676Z,10.11
2018-12-06T23:45:56.947Z,10.09
2018-12-06T23:48:31.878Z,10.14
2018-12-06T23:51:14.584Z,10.19
2018-12-06T23:53:49.969Z,10.21
2018-12-06T23:56:27.132Z,10.22
2018-12-06T23:59:02.102Z,10.21
